createdAt,value
2018-11-22T00:01:22.181Z,100881.77
2018-11-22T00:03:49.521Z,100887.06
2018-11-22T00:06:16.818Z,100892.25
2018-11-22T00:08:44.320Z,100882.84
2018-11-22T00:11:11.780Z,100893.20
2018-11-22T00:13:39.216Z,100889.88
2018-11-22T00:16:06.555Z,100884.31
2018-11-22T00:18:33.953Z,100888.97
2018-11-22T00:21:01.768Z,100882.91
2018-11-22T00:23:29.160Z,100887.33
2018-11-22T00:25:56.565Z,100887.30
2018-11-22T00:28:24.025Z,100891.98
2018-11-22T00:30:51.328Z,100888.13
2018-11-22T00:33:18.755Z,100892.36
2018-11-22T00:35:46.107Z,100887.14
2018-11-22T00:38:13.546Z,100890.57
2018-11-22T00:40:40.838Z,100887.75
2018-11-22T00:43:08.267Z,100887.41
2018-11-22T00:45:36.121Z,100893.31
2018-11-22T00:48:04.020Z,100893.77
2018-11-22T00:50:31.360Z,100890.19
2018-11-22T00:52:58.675Z,100899.34
2018-11-22T00:55:26.945Z,100895.17
2018-11-22T00:57:54.744Z,100892.52
2018-11-22T01:00:23.488Z,100895.06
2018-11-22T01:02:50.910Z,100900.20
2018-11-22T01:05:19.531Z,100904.86
2018-11-22T01:07:47.068Z,100899.86
2018-11-22T01:10:18.850Z,100900.25
2018-11-22T01:12:47.205Z,100902.73
2018-11-22T12:16:54.469Z,100853.28
2018-11-22T12:19:22.444Z,100855.61
2018-11-22T12:21:50.575Z,100853.20
2018-11-22T12:24:18.856Z,100852.96
2018-11-22T12:26:46.850Z,100848.78
2018-11-22T12:29:14.871Z,100858.66
2018-11-22T12:31:43.049Z,100856.52
2018-11-22T12:34:14.030Z,100850.74
2018-11-22T12:36:47.703Z,100851.89
2018-11-22T12:39:16.550Z,100856.70
2018-11-22T12:41:44.690Z,100852.30
2018-11-22T12:44:12.755Z,100855.78
2018-11-22T12:46:40.832Z,100848.27
2018-11-22T12:49:09.260Z,100852.43
2018-11-22T12:51:37.395Z,100854.11
2018-11-22T12:54:06.315Z,100850.41
2018-11-22T12:56:34.430Z,100851.84
2018-11-22T12:59:02.572Z,100851.38
2018-11-22T13:01:30.749Z,100844.52
2018-11-22T13:03:58.801Z,100839.45
2018-11-22T13:06:26.950Z,100843.21
2018-11-22T13:08:55.050Z,100834.97
2018-11-22T13:11:23.135Z,100843.16
2018-11-22T13:13:51.253Z,100840.81
2018-11-22T13:16:19.439Z,100841.00
2018-11-22T13:18:47.486Z,100844.00
2018-11-22T13:21:15.428Z,100838.91
2018-11-22T13:23:43.522Z,100836.59
2018-11-22T13:26:11.882Z,100837.38
2018-11-22T13:28:39.937Z,100835.30
2018-11-22T13:31:08.992Z,100833.20
2018-11-22T13:33:37.000Z,100836.22
2018-11-22T13:36:05.222Z,100828.14
2018-11-22T13:38:33.305Z,100830.41
2018-11-22T13:41:01.330Z,100840.16
2018-11-22T13:43:29.426Z,100829.91
2018-11-22T13:45:57.382Z,100827.69
2018-11-22T13:48:25.417Z,100825.17
2018-11-22T13:50:53.418Z,100828.66
2018-11-22T13:53:21.567Z,100824.25
2018-11-22T13:55:49.512Z,100825.09
2018-11-22T13:58:17.559Z,100826.67
2018-11-22T14:00:45.543Z,100825.29
2018-11-22T14:03:13.710Z,100835.44
2018-11-22T14:05:41.853Z,100830.34
2018-11-22T14:08:10.574Z,100832.05
2018-11-22T14:10:38.562Z,100837.25
2018-11-22T14:13:06.562Z,100835.16
2018-11-22T14:15:34.567Z,100842.70
2018-11-22T14:18:04.026Z,100834.66
2018-11-22T14:20:34.316Z,100831.27
2018-11-22T14:23:02.412Z,100832.05
2018-11-22T14:25:30.763Z,100830.34
2018-11-22T14:27:59.012Z,100829.46
2018-11-22T14:30:29.439Z,100835.54
2018-11-22T14:32:57.502Z,100832.84
2018-11-22T14:35:26.017Z,100831.73
2018-11-22T14:37:54.110Z,100836.41
2018-11-22T14:40:23.687Z,100832.70
2018-11-22T14:42:52.565Z,100828.72
2018-11-22T14:45:21.756Z,100828.30
2018-11-22T14:47:50.646Z,100831.59
2018-11-22T14:50:24.146Z,100832.05
2018-11-22T14:53:25.000Z,100837.76
2018-11-22T14:55:53.362Z,100838.55
2018-11-22T14:58:21.395Z,100846.39
2018-11-22T15:00:49.429Z,100836.84
2018-11-22T15:03:17.813Z,100841.14
2018-11-22T15:05:45.863Z,100843.08
2018-11-22T15:08:14.514Z,100838.09
2018-11-22T15:10:42.530Z,100840.50
2018-11-22T15:13:10.613Z,100833.27
2018-11-22T15:15:39.086Z,100833.73
2018-11-22T15:18:07.282Z,100830.89
2018-11-22T15:20:35.315Z,100837.38
2018-11-22T15:23:03.371Z,100835.67
2018-11-22T15:25:31.520Z,100835.62
2018-11-22T15:27:59.570Z,100836.33
2018-11-22T15:30:28.831Z,100838.09
2018-11-22T15:32:57.404Z,100839.19
2018-11-22T15:35:27.323Z,100831.02
2018-11-22T15:37:55.614Z,100836.97
2018-11-22T15:40:24.804Z,100834.50
2018-11-22T15:42:54.541Z,100844.89
2018-11-22T15:45:24.174Z,100840.11
2018-11-22T15:47:52.439Z,100841.45
2018-11-22T15:50:23.137Z,100839.65
2018-11-22T15:52:51.373Z,100844.12
2018-11-22T15:55:20.984Z,100838.68
2018-11-22T15:57:49.353Z,100848.73
2018-11-22T16:00:22.320Z,100845.30
2018-11-22T16:02:51.176Z,100852.83
2018-11-22T16:05:20.242Z,100849.72
2018-11-22T16:07:48.553Z,100851.64
2018-11-22T16:10:26.298Z,100850.89
2018-11-22T16:12:51.893Z,100852.83
2018-11-22T16:15:22.454Z,100852.42
2018-11-22T16:17:50.613Z,100847.17
2018-11-22T16:20:19.178Z,100841.47
2018-11-22T16:22:47.313Z,100842.03
2018-11-22T16:25:15.553Z,100847.13
2018-11-22T16:27:43.613Z,100847.17
2018-11-22T16:30:15.913Z,100846.84
2018-11-22T16:32:44.273Z,100837.25
2018-11-22T16:35:14.254Z,100839.39
2018-11-22T16:37:42.853Z,100844.20
2018-11-22T16:40:14.301Z,100839.06
2018-11-22T16:42:43.555Z,100839.44
2018-11-22T16:45:18.612Z,100836.84
2018-11-22T16:47:46.795Z,100842.82
2018-11-22T16:50:15.915Z,100832.11
2018-11-22T16:52:44.172Z,100832.77
2018-11-22T16:55:13.190Z,100833.27
2018-11-22T16:57:42.460Z,100831.14
2018-11-22T17:00:15.421Z,100833.73
2018-11-22T17:02:44.112Z,100838.55
2018-11-22T17:05:12.475Z,100833.22
2018-11-22T17:07:40.732Z,100840.09
2018-11-22T17:10:10.812Z,100829.38
2018-11-22T17:12:39.032Z,100829.79
2018-11-22T17:15:10.012Z,100828.73
2018-11-22T17:17:38.371Z,100833.47
2018-11-22T17:20:08.540Z,100833.60
2018-11-22T17:22:37.011Z,100828.41
2018-11-22T17:25:07.712Z,100831.66
2018-11-22T17:27:36.172Z,100829.98
2018-11-22T17:30:05.315Z,100827.52
2018-11-22T17:32:33.491Z,100828.17
2018-11-22T17:35:02.772Z,100828.73
2018-11-22T17:37:30.993Z,100830.88
2018-11-22T17:39:59.232Z,100821.87
2018-11-22T17:42:27.512Z,100830.16
2018-11-22T17:44:55.812Z,100822.20
2018-11-22T17:47:23.991Z,100823.49
2018-11-22T17:49:52.291Z,100817.97
2018-11-22T17:52:23.412Z,100822.38
2018-11-22T17:54:51.632Z,100819.20
2018-11-22T17:57:19.900Z,100824.97
2018-11-22T17:59:48.220Z,100819.32
2018-11-22T18:02:16.552Z,100820.16
2018-11-22T18:04:44.892Z,100817.00
2018-11-22T18:07:13.792Z,100818.62
2018-11-22T18:09:47.872Z,100825.81
2018-11-22T18:12:16.152Z,100825.17
2018-11-22T18:14:44.452Z,100820.75
2018-11-22T18:17:12.832Z,100825.16
2018-11-22T18:19:41.015Z,100832.44
2018-11-22T18:22:09.231Z,100830.81
2018-11-22T18:24:37.454Z,100836.06
2018-11-22T18:27:05.805Z,100836.06
2018-11-22T18:29:34.380Z,100839.75
2018-11-22T18:32:02.636Z,100836.16
2018-11-22T18:34:31.531Z,100835.25
2018-11-22T18:36:59.842Z,100833.41
2018-11-22T18:39:28.072Z,100834.08
2018-11-22T18:41:56.535Z,100836.09
2018-11-22T18:44:25.032Z,100837.77
2018-11-22T18:46:53.251Z,100841.86
2018-11-22T18:49:21.372Z,100838.86
2018-11-22T18:51:49.672Z,100830.11
2018-11-22T18:54:17.892Z,100831.56
2018-11-22T18:56:46.131Z,100826.83
2018-11-22T18:59:14.952Z,100830.06
2018-11-22T19:01:45.020Z,100829.52
2018-11-22T19:04:11.532Z,100835.78
2018-11-22T19:06:39.712Z,100834.20
2018-11-22T19:09:09.152Z,100830.14
2018-11-22T19:11:37.632Z,100831.89
2018-11-22T19:14:06.132Z,100835.38
2018-11-22T19:16:34.413Z,100834.36
2018-11-22T19:19:02.591Z,100838.13
2018-11-22T19:21:33.671Z,100835.45
2018-11-22T19:24:01.873Z,100837.95
2018-11-22T19:26:30.295Z,100833.92
2018-11-22T19:28:58.591Z,100834.77
2018-11-22T19:31:27.120Z,100836.44
2018-11-22T19:33:55.372Z,100835.23
2018-11-22T19:36:23.653Z,100828.86
2018-11-22T19:38:51.855Z,100832.30
2018-11-22T19:41:20.172Z,100829.24
2018-11-22T19:43:48.491Z,100831.79
2018-11-22T19:46:16.892Z,100835.78
2018-11-22T19:48:45.391Z,100827.95
2018-11-22T19:51:13.751Z,100826.52
2018-11-22T19:53:42.272Z,100822.95
2018-11-22T19:56:10.491Z,100831.07
2018-11-22T19:58:38.712Z,100829.82
2018-11-22T20:01:09.712Z,100831.91
2018-11-22T20:03:47.431Z,100830.23
2018-11-22T20:06:15.875Z,100835.02
2018-11-22T20:08:44.412Z,100824.58
2018-11-22T20:11:12.872Z,100833.34
2018-11-22T20:13:41.268Z,100833.62
2018-11-22T20:16:09.591Z,100834.57
2018-11-22T20:18:37.953Z,100835.88
2018-11-22T20:21:06.503Z,100839.34
2018-11-22T20:23:34.792Z,100843.09
2018-11-22T20:26:03.071Z,100844.92
2018-11-22T20:28:31.773Z,100845.68
2018-11-22T20:31:00.033Z,100846.41
2018-11-22T20:33:28.313Z,100841.86
2018-11-22T20:35:56.555Z,100836.21
2018-11-22T20:38:27.132Z,100834.91
2018-11-22T20:40:57.375Z,100836.08
2018-11-22T20:43:23.700Z,100841.41
2018-11-22T20:45:52.461Z,100836.86
2018-11-22T20:48:20.631Z,100830.50
2018-11-22T20:50:48.821Z,100833.80
2018-11-22T20:53:17.393Z,100829.77
2018-11-22T20:55:45.672Z,100833.93
2018-11-22T20:58:13.900Z,100827.63
2018-11-22T21:00:42.473Z,100832.72
2018-11-22T21:03:11.018Z,100836.53
2018-11-22T21:05:39.761Z,100838.48
2018-11-22T21:08:08.111Z,100832.27
2018-11-22T21:10:36.352Z,100830.23
2018-11-22T21:13:04.712Z,100825.31
2018-11-22T21:15:33.710Z,100827.96
2018-11-22T21:18:03.315Z,100820.25
2018-11-22T21:20:33.432Z,100821.69
2018-11-22T21:23:01.600Z,100826.87
2018-11-22T21:25:29.740Z,100829.58
2018-11-22T21:27:58.231Z,100822.11
2018-11-22T21:30:28.672Z,100827.52
2018-11-22T21:32:57.853Z,100830.30
2018-11-22T21:35:26.133Z,100837.03
2018-11-22T21:37:55.413Z,100839.53
2018-11-22T21:40:24.094Z,100842.57
2018-11-22T21:42:52.371Z,100837.84
2018-11-22T21:45:22.452Z,100845.35
2018-11-22T21:47:50.912Z,100843.63
2018-11-22T21:50:20.793Z,100849.58
2018-11-22T21:52:49.112Z,100845.68
2018-11-22T21:55:20.492Z,100844.97
2018-11-22T21:57:49.352Z,100837.83
2018-11-22T22:00:36.712Z,100835.64
2018-11-22T22:03:06.656Z,100832.12
2018-11-22T22:05:35.980Z,100835.97
2018-11-22T22:08:04.293Z,100825.89
2018-11-22T22:10:32.792Z,100831.39
2018-11-22T22:13:01.112Z,100831.21
2018-11-22T22:15:30.512Z,100829.59
2018-11-22T22:17:58.791Z,100828.67
2018-11-22T22:20:30.533Z,100819.44
2018-11-22T22:22:59.777Z,100820.88
2018-11-22T22:25:27.462Z,100822.91
2018-11-22T22:27:56.312Z,100823.48
2018-11-22T22:30:26.935Z,100826.08
2018-11-22T22:32:56.533Z,100824.13
2018-11-22T22:35:24.700Z,100819.25
2018-11-22T22:37:52.952Z,100821.02
2018-11-22T22:40:23.331Z,100817.77
2018-11-22T22:42:52.472Z,100817.03
2018-11-22T22:45:21.823Z,100814.89
2018-11-22T22:47:50.639Z,100815.55
2018-11-22T22:50:20.082Z,100815.41
2018-11-22T22:52:49.600Z,100806.21
2018-11-22T22:55:17.880Z,100805.94
2018-11-22T22:57:46.080Z,100809.45
2018-11-22T23:00:23.881Z,100809.32
2018-11-22T23:02:54.280Z,100809.89
2018-11-22T23:05:23.254Z,100815.22
2018-11-22T23:07:51.635Z,100808.26
2018-11-22T23:10:20.516Z,100811.00
2018-11-22T23:12:48.752Z,100812.16
2018-11-22T23:15:17.992Z,100799.06
2018-11-22T23:17:46.352Z,100810.16
2018-11-22T23:20:17.033Z,100810.76
2018-11-22T23:22:45.974Z,100803.61
2018-11-22T23:25:14.897Z,100806.77
2018-11-22T23:27:43.111Z,100805.02
2018-11-22T23:30:17.232Z,100802.83
2018-11-22T23:32:46.732Z,100801.07
2018-11-22T23:35:15.113Z,100806.13
2018-11-22T23:37:44.432Z,100803.75
2018-11-22T23:40:21.913Z,100801.91
2018-11-22T23:42:50.012Z,100802.05
2018-11-22T23:45:19.512Z,100800.50
2018-11-22T23:47:48.199Z,100800.37
2018-11-22T23:50:18.960Z,100800.69
2018-11-22T23:52:48.949Z,100796.80
2018-11-22T23:55:17.160Z,100796.80
2018-11-22T23:57:46.222Z,100798.61
